sensor_id;sensor_type;location;lat;lon;timestamp;temperature;humidity
41924;DHT22;27613;48.116;11.656;2023-01-28T00:01:45;-1.10;99.90
41924;DHT22;27613;48.116;11.656;2023-01-28T00:04:11;-1.20;99.90
41924;DHT22;27613;48.116;11.656;2023-01-28T00:06:36;-1.20;99.90
41924;DHT22;27613;48.116;11.656;2023-01-28T00:09:02;-1.20;99.90
41924;DHT22;27613;48.116;11.656;2023-01-28T00:11:27;-1.30;99.90
41924;DHT22;27613;48.116;11.656;2023-01-28T00:13:54;-1.30;99.90
41924;DHT22;27613;48.116;11.656;2023-01-28T00:16:20;-1.30;99.90
41924;DHT22;27613;48.116;11.656;2023-01-28T00:18:51;-1.30;99.90
41924;DHT22;27613;48.116;11.656;2023-01-28T00:21:18;-1.30;99.90
41924;DHT22;27613;48.116;11.656;2023-01-28T00:23:49;-1.30;99.90
41924;DHT22;27613;48.116;11.656;2023-01-28T00:26:16;-1.20;99.90
41924;DHT22;27613;48.116;11.656;2023-01-28T00:28:42;-1.30;99.90
41924;DHT22;27613;48.116;11.656;2023-01-28T00:31:11;-1.30;99.90
41924;DHT22;27613;48.116;11.656;2023-01-28T00:33:38;-1.30;99.90
41924;DHT22;27613;48.116;11.656;2023-01-28T00:36:04;-1.40;99.90
41924;DHT22;27613;48.116;11.656;2023-01-28T00:38:31;-1.40;99.90
41924;DHT22;27613;48.116;11.656;2023-01-28T00:41:07;-1.40;99.90
41924;DHT22;27613;48.116;11.656;2023-01-28T00:43:34;-1.40;99.90
41924;DHT22;27613;48.116;11.656;2023-01-28T00:45:59;-1.30;99.90
41924;DHT22;27613;48.116;11.656;2023-01-28T00:48:25;-1.40;99.90
41924;DHT22;27613;48.116;11.656;2023-01-28T00:50:50;-1.40;99.90
41924;DHT22;27613;48.116;11.656;2023-01-28T00:53:16;-1.40;99.90
41924;DHT22;27613;48.116;11.656;2023-01-28T00:55:41;-1.40;99.90
41924;DHT22;27613;48.116;11.656;2023-01-28T00:58:07;-1.40;99.90
41924;DHT22;27613;48.116;11.656;2023-01-28T01:00:32;-1.40;99.90
41924;DHT22;27613;48.116;11.656;2023-01-28T01:02:58;-1.40;99.90
41924;DHT22;27613;48.116;11.656;2023-01-28T01:05:24;-1.40;99.90
41924;DHT22;27613;48.116;11.656;2023-01-28T01:07:49;-1.40;99.90
41924;DHT22;27613;48.116;11.656;2023-01-28T01:10:17;-1.40;99.90
41924;DHT22;27613;48.116;11.656;2023-01-28T01:12:45;-1.40;99.90
41924;DHT22;27613;48.116;11.656;2023-01-28T01:15:11;-1.40;99.90
41924;DHT22;27613;48.116;11.656;2023-01-28T01:17:38;-1.40;99.90
41924;DHT22;27613;48.116;11.656;2023-01-28T01:20:06;-1.40;99.90
41924;DHT22;27613;48.116;11.656;2023-01-28T01:22:34;-1.40;99.90
41924;DHT22;27613;48.116;11.656;2023-01-28T01:24:59;-1.40;99.90
41924;DHT22;27613;48.116;11.656;2023-01-28T01:27:25;-1.40;99.90
41924;DHT22;27613;48.116;11.656;2023-01-28T01:29:51;-1.50;99.90
41924;DHT22;27613;48.116;11.656;2023-01-28T01:32:16;-1.40;99.90
41924;DHT22;27613;48.116;11.656;2023-01-28T01:34:43;-1.40;99.90
41924;DHT22;27613;48.116;11.656;2023-01-28T01:37:08;-1.50;99.90
41924;DHT22;27613;48.116;11.656;2023-01-28T01:39:35;-1.50;99.90
41924;DHT22;27613;48.116;11.656;2023-01-28T01:42:00;-1.40;99.90
41924;DHT22;27613;48.116;11.656;2023-01-28T01:44:46;-1.40;99.90
41924;DHT22;27613;48.116;11.656;2023-01-28T01:47:17;-1.40;99.90
41924;DHT22;27613;48.116;11.656;2023-01-28T01:49:43;-1.40;99.90
41924;DHT22;27613;48.116;11.656;2023-01-28T01:52:12;-1.40;99.90
41924;DHT22;27613;48.116;11.656;2023-01-28T01:54:41;-1.40;99.90
41924;DHT22;27613;48.116;11.656;2023-01-28T01:57:11;-1.40;99.90
41924;DHT22;27613;48.116;11.656;2023-01-28T01:59:39;-1.40;99.90
41924;DHT22;27613;48.116;11.656;2023-01-28T02:02:07;-1.40;99.90
41924;DHT22;27613;48.116;11.656;2023-01-28T02:04:42;-1.40;99.90
41924;DHT22;27613;48.116;11.656;2023-01-28T02:07:10;-1.40;99.90
41924;DHT22;27613;48.116;11.656;2023-01-28T02:09:37;-1.40;99.90
41924;DHT22;27613;48.116;11.656;2023-01-28T02:12:12;-1.40;99.90
41924;DHT22;27613;48.116;11.656;2023-01-28T02:14:45;-1.40;99.90
41924;DHT22;27613;48.116;11.656;2023-01-28T02:17:12;-1.50;99.90
41924;DHT22;27613;48.116;11.656;2023-01-28T02:20:09;-1.40;99.90
41924;DHT22;27613;48.116;11.656;2023-01-28T02:28:22;-1.50;99.90
41924;DHT22;27613;48.116;11.656;2023-01-28T02:31:00;-1.50;99.90
41924;DHT22;27613;48.116;11.656;2023-01-28T02:39:02;-1.40;99.90
41924;DHT22;27613;48.116;11.656;2023-01-28T02:41:35;-1.40;99.90
41924;DHT22;27613;48.116;11.656;2023-01-28T02:44:03;-1.50;99.90
41924;DHT22;27613;48.116;11.656;2023-01-28T02:59:50;-1.40;99.90
41924;DHT22;27613;48.116;11.656;2023-01-28T03:02:45;-1.50;99.90
41924;DHT22;27613;48.116;11.656;2023-01-28T03:05:16;-1.50;99.90
41924;DHT22;27613;48.116;11.656;2023-01-28T03:07:47;-1.50;99.90
41924;DHT22;27613;48.116;11.656;2023-01-28T03:10:16;-1.50;99.90
41924;DHT22;27613;48.116;11.656;2023-01-28T03:12:43;-1.50;99.90
41924;DHT22;27613;48.116;11.656;2023-01-28T03:15:48;-1.50;99.90
41924;DHT22;27613;48.116;11.656;2023-01-28T03:18:42;-1.50;99.90
41924;DHT22;27613;48.116;11.656;2023-01-28T03:21:31;-1.40;99.90
41924;DHT22;27613;48.116;11.656;2023-01-28T03:24:24;-1.40;99.90
41924;DHT22;27613;48.116;11.656;2023-01-28T03:27:40;-1.40;99.90
41924;DHT22;27613;48.116;11.656;2023-01-28T03:30:38;-1.40;99.90
41924;DHT22;27613;48.116;11.656;2023-01-28T03:33:24;-1.50;99.90
41924;DHT22;27613;48.116;11.656;2023-01-28T03:36:09;-1.50;99.90
41924;DHT22;27613;48.116;11.656;2023-01-28T03:38:54;-1.50;99.90
41924;DHT22;27613;48.116;11.656;2023-01-28T03:41:22;-1.50;99.90
41924;DHT22;27613;48.116;11.656;2023-01-28T03:43:49;-1.50;99.90
41924;DHT22;27613;48.116;11.656;2023-01-28T03:46:15;-1.50;99.90
41924;DHT22;27613;48.116;11.656;2023-01-28T03:48:41;-1.50;99.90
41924;DHT22;27613;48.116;11.656;2023-01-28T03:51:06;-1.50;99.90
41924;DHT22;27613;48.116;11.656;2023-01-28T03:53:32;-1.50;99.90
41924;DHT22;27613;48.116;11.656;2023-01-28T03:55:58;-1.50;99.90
41924;DHT22;27613;48.116;11.656;2023-01-28T03:58:24;-1.60;99.90
41924;DHT22;27613;48.116;11.656;2023-01-28T04:01:10;-1.50;99.90
41924;DHT22;27613;48.116;11.656;2023-01-28T04:03:36;-1.50;99.90
41924;DHT22;27613;48.116;11.656;2023-01-28T04:06:04;-1.50;99.90
41924;DHT22;27613;48.116;11.656;2023-01-28T04:08:30;-1.50;99.90
41924;DHT22;27613;48.116;11.656;2023-01-28T04:10:57;-1.50;99.90
41924;DHT22;27613;48.116;11.656;2023-01-28T04:13:22;-1.40;99.90
41924;DHT22;27613;48.116;11.656;2023-01-28T04:15:48;-1.50;99.90
41924;DHT22;27613;48.116;11.656;2023-01-28T04:18:14;-1.50;99.90
41924;DHT22;27613;48.116;11.656;2023-01-28T04:20:40;-1.50;99.90
41924;DHT22;27613;48.116;11.656;2023-01-28T04:23:06;-1.50;99.90
41924;DHT22;27613;48.116;11.656;2023-01-28T04:25:32;-1.50;99.90
41924;DHT22;27613;48.116;11.656;2023-01-28T04:27:58;-1.50;99.90
41924;DHT22;27613;48.116;11.656;2023-01-28T04:30:24;-1.50;99.90
41924;DHT22;27613;48.116;11.656;2023-01-28T04:32:50;-1.50;99.90
41924;DHT22;27613;48.116;11.656;2023-01-28T04:35:16;-1.40;99.90
41924;DHT22;27613;48.116;11.656;2023-01-28T04:37:42;-1.50;99.90
41924;DHT22;27613;48.116;11.656;2023-01-28T04:40:08;-1.50;99.90
41924;DHT22;27613;48.116;11.656;2023-01-28T04:42:34;-1.50;99.90
41924;DHT22;27613;48.116;11.656;2023-01-28T04:45:00;-1.50;99.90
41924;DHT22;27613;48.116;11.656;2023-01-28T04:47:25;-1.50;99.90
41924;DHT22;27613;48.116;11.656;2023-01-28T04:49:51;-1.50;99.90
41924;DHT22;27613;48.116;11.656;2023-01-28T04:52:16;-1.50;99.90
41924;DHT22;27613;48.116;11.656;2023-01-28T04:54:42;-1.50;99.90
41924;DHT22;27613;48.116;11.656;2023-01-28T04:57:07;-1.50;99.90
41924;DHT22;27613;48.116;11.656;2023-01-28T04:59:33;-1.50;99.90
41924;DHT22;27613;48.116;11.656;2023-01-28T05:01:59;-1.50;99.90
41924;DHT22;27613;48.116;11.656;2023-01-28T05:04:24;-1.50;99.90
41924;DHT22;27613;48.116;11.656;2023-01-28T05:06:50;-1.60;99.90
41924;DHT22;27613;48.116;11.656;2023-01-28T05:09:15;-1.60;99.90
41924;DHT22;27613;48.116;11.656;2023-01-28T05:11:41;-1.60;99.90
41924;DHT22;27613;48.116;11.656;2023-01-28T05:14:06;-1.50;99.90
41924;DHT22;27613;48.116;11.656;2023-01-28T05:16:32;-1.60;99.90
41924;DHT22;27613;48.116;11.656;2023-01-28T05:18:59;-1.60;99.90
41924;DHT22;27613;48.116;11.656;2023-01-28T05:21:26;-1.60;99.90
41924;DHT22;27613;48.116;11.656;2023-01-28T05:23:51;-1.60;99.90
41924;DHT22;27613;48.116;11.656;2023-01-28T05:26:17;-1.60;99.90
41924;DHT22;27613;48.116;11.656;2023-01-28T05:28:42;-1.50;99.90
41924;DHT22;27613;48.116;11.656;2023-01-28T05:31:09;-1.50;99.90
41924;DHT22;27613;48.116;11.656;2023-01-28T05:33:35;-1.50;99.90
41924;DHT22;27613;48.116;11.656;2023-01-28T05:36:01;-1.60;99.90
41924;DHT22;27613;48.116;11.656;2023-01-28T05:38:27;-1.60;99.90
41924;DHT22;27613;48.116;11.656;2023-01-28T05:40:52;-1.50;99.90
41924;DHT22;27613;48.116;11.656;2023-01-28T05:43:18;-1.50;99.90
41924;DHT22;27613;48.116;11.656;2023-01-28T05:45:44;-1.50;99.90
41924;DHT22;27613;48.116;11.656;2023-01-28T05:48:10;-1.60;99.90
41924;DHT22;27613;48.116;11.656;2023-01-28T05:50:35;-1.60;99.90
41924;DHT22;27613;48.116;11.656;2023-01-28T05:53:04;-1.60;99.90
41924;DHT22;27613;48.116;11.656;2023-01-28T05:55:30;-1.50;99.90
41924;DHT22;27613;48.116;11.656;2023-01-28T05:57:56;-1.50;99.90
41924;DHT22;27613;48.116;11.656;2023-01-28T06:00:21;-1.60;99.90
41924;DHT22;27613;48.116;11.656;2023-01-28T06:02:47;-1.60;99.90
41924;DHT22;27613;48.116;11.656;2023-01-28T06:05:12;-1.60;99.90
41924;DHT22;27613;48.116;11.656;2023-01-28T06:07:38;-1.60;99.90
41924;DHT22;27613;48.116;11.656;2023-01-28T06:10:04;-1.60;99.90
41924;DHT22;27613;48.116;11.656;2023-01-28T06:12:29;-1.60;99.90
41924;DHT22;27613;48.116;11.656;2023-01-28T06:14:55;-1.60;99.90
41924;DHT22;27613;48.116;11.656;2023-01-28T06:17:20;-1.60;99.90
41924;DHT22;27613;48.116;11.656;2023-01-28T06:19:46;-1.60;99.90
41924;DHT22;27613;48.116;11.656;2023-01-28T06:22:11;-1.60;99.90
41924;DHT22;27613;48.116;11.656;2023-01-28T06:24:37;-1.60;99.90
41924;DHT22;27613;48.116;11.656;2023-01-28T06:27:03;-1.60;99.90
41924;DHT22;27613;48.116;11.656;2023-01-28T06:29:28;-1.60;99.90
41924;DHT22;27613;48.116;11.656;2023-01-28T06:31:54;-1.60;99.90
41924;DHT22;27613;48.116;11.656;2023-01-28T06:34:19;-1.60;99.90
41924;DHT22;27613;48.116;11.656;2023-01-28T06:36:45;-1.60;99.90
41924;DHT22;27613;48.116;11.656;2023-01-28T06:39:11;-1.60;99.90
41924;DHT22;27613;48.116;11.656;2023-01-28T06:41:36;-1.60;99.90
41924;DHT22;27613;48.116;11.656;2023-01-28T06:44:02;-1.60;99.90
41924;DHT22;27613;48.116;11.656;2023-01-28T06:46:27;-1.60;99.90
41924;DHT22;27613;48.116;11.656;2023-01-28T06:48:53;-1.60;99.90
41924;DHT22;27613;48.116;11.656;2023-01-28T06:51:18;-1.60;99.90
41924;DHT22;27613;48.116;11.656;2023-01-28T06:53:44;-1.60;99.90
41924;DHT22;27613;48.116;11.656;2023-01-28T06:56:10;-1.60;99.90
41924;DHT22;27613;48.116;11.656;2023-01-28T06:58:36;-1.60;99.90
41924;DHT22;27613;48.116;11.656;2023-01-28T07:01:01;-1.60;99.90
41924;DHT22;27613;48.116;11.656;2023-01-28T07:03:28;-1.60;99.90
41924;DHT22;27613;48.116;11.656;2023-01-28T07:05:54;-1.60;99.90
41924;DHT22;27613;48.116;11.656;2023-01-28T07:08:19;-1.60;99.90
41924;DHT22;27613;48.116;11.656;2023-01-28T07:10:45;-1.60;99.90
41924;DHT22;27613;48.116;11.656;2023-01-28T07:13:10;-1.60;99.90
41924;DHT22;27613;48.116;11.656;2023-01-28T07:15:36;-1.60;99.90
41924;DHT22;27613;48.116;11.656;2023-01-28T07:18:01;-1.60;99.90
41924;DHT22;27613;48.116;11.656;2023-01-28T07:20:27;-1.50;99.90
41924;DHT22;27613;48.116;11.656;2023-01-28T07:22:52;-1.50;99.90
41924;DHT22;27613;48.116;11.656;2023-01-28T07:25:18;-1.50;99.90
41924;DHT22;27613;48.116;11.656;2023-01-28T07:27:48;-1.40;99.90
41924;DHT22;27613;48.116;11.656;2023-01-28T07:30:15;-1.40;99.90
41924;DHT22;27613;48.116;11.656;2023-01-28T07:32:41;-1.40;99.90
41924;DHT22;27613;48.116;11.656;2023-01-28T07:35:06;-1.40;99.90
41924;DHT22;27613;48.116;11.656;2023-01-28T07:37:32;-1.40;99.90
41924;DHT22;27613;48.116;11.656;2023-01-28T07:39:57;-1.40;99.90
41924;DHT22;27613;48.116;11.656;2023-01-28T07:42:23;-1.40;99.90
41924;DHT22;27613;48.116;11.656;2023-01-28T07:44:48;-1.40;99.90
41924;DHT22;27613;48.116;11.656;2023-01-28T07:47:14;-1.40;99.90
41924;DHT22;27613;48.116;11.656;2023-01-28T07:49:40;-1.40;99.90
41924;DHT22;27613;48.116;11.656;2023-01-28T07:52:06;-1.40;99.90
41924;DHT22;27613;48.116;11.656;2023-01-28T07:54:31;-1.40;99.90
41924;DHT22;27613;48.116;11.656;2023-01-28T07:56:57;-1.30;99.90
41924;DHT22;27613;48.116;11.656;2023-01-28T07:59:22;-1.30;99.90
41924;DHT22;27613;48.116;11.656;2023-01-28T08:01:48;-1.30;99.90
41924;DHT22;27613;48.116;11.656;2023-01-28T08:04:14;-1.40;99.90
41924;DHT22;27613;48.116;11.656;2023-01-28T08:06:39;-1.30;99.90
41924;DHT22;27613;48.116;11.656;2023-01-28T08:09:05;-1.30;99.90
41924;DHT22;27613;48.116;11.656;2023-01-28T08:11:33;-1.30;99.90
41924;DHT22;27613;48.116;11.656;2023-01-28T08:14:00;-1.20;99.90
41924;DHT22;27613;48.116;11.656;2023-01-28T08:16:26;-1.10;99.90
41924;DHT22;27613;48.116;11.656;2023-01-28T08:18:52;-1.10;99.90
41924;DHT22;27613;48.116;11.656;2023-01-28T08:21:18;-1.10;99.90
41924;DHT22;27613;48.116;11.656;2023-01-28T08:23:44;-1.10;99.90
41924;DHT22;27613;48.116;11.656;2023-01-28T08:26:09;-1.10;99.90
41924;DHT22;27613;48.116;11.656;2023-01-28T08:28:35;-1.10;99.90
41924;DHT22;27613;48.116;11.656;2023-01-28T08:31:00;-1.10;99.90
41924;DHT22;27613;48.116;11.656;2023-01-28T08:33:26;-1.10;99.90
41924;DHT22;27613;48.116;11.656;2023-01-28T08:35:51;-1.10;99.90
41924;DHT22;27613;48.116;11.656;2023-01-28T08:38:17;-1.10;99.90
41924;DHT22;27613;48.116;11.656;2023-01-28T08:40:45;-1.00;99.90
41924;DHT22;27613;48.116;11.656;2023-01-28T08:43:10;-1.00;99.90
41924;DHT22;27613;48.116;11.656;2023-01-28T08:45:38;-0.90;99.90
41924;DHT22;27613;48.116;11.656;2023-01-28T08:48:05;-0.90;99.90
41924;DHT22;27613;48.116;11.656;2023-01-28T08:50:34;-0.90;99.90
41924;DHT22;27613;48.116;11.656;2023-01-28T08:53:02;-0.80;99.90
41924;DHT22;27613;48.116;11.656;2023-01-28T08:55:28;-0.80;99.90
41924;DHT22;27613;48.116;11.656;2023-01-28T08:57:53;-0.80;99.90
41924;DHT22;27613;48.116;11.656;2023-01-28T09:00:20;-0.70;99.90
41924;DHT22;27613;48.116;11.656;2023-01-28T09:02:46;-0.70;99.90
41924;DHT22;27613;48.116;11.656;2023-01-28T09:05:12;-0.70;99.90
41924;DHT22;27613;48.116;11.656;2023-01-28T09:07:38;-0.60;99.90
41924;DHT22;27613;48.116;11.656;2023-01-28T09:10:04;-0.50;99.90
41924;DHT22;27613;48.116;11.656;2023-01-28T09:12:31;-0.50;99.90
41924;DHT22;27613;48.116;11.656;2023-01-28T09:14:56;-0.40;99.90
41924;DHT22;27613;48.116;11.656;2023-01-28T09:17:22;-0.30;99.90
41924;DHT22;27613;48.116;11.656;2023-01-28T09:19:49;-0.30;99.90
41924;DHT22;27613;48.116;11.656;2023-01-28T09:22:15;-0.20;99.90
41924;DHT22;27613;48.116;11.656;2023-01-28T09:24:41;-0.20;99.90
41924;DHT22;27613;48.116;11.656;2023-01-28T09:27:07;-0.20;99.90
41924;DHT22;27613;48.116;11.656;2023-01-28T09:29:33;-0.20;99.90
41924;DHT22;27613;48.116;11.656;2023-01-28T09:31:59;-0.10;99.90
41924;DHT22;27613;48.116;11.656;2023-01-28T09:34:25;-0.10;99.90
41924;DHT22;27613;48.116;11.656;2023-01-28T09:36:50;-0.20;99.90
41924;DHT22;27613;48.116;11.656;2023-01-28T09:39:16;-0.10;99.90
41924;DHT22;27613;48.116;11.656;2023-01-28T09:47:50;0.10;99.90
41924;DHT22;27613;48.116;11.656;2023-01-28T09:50:30;0.30;99.90
41924;DHT22;27613;48.116;11.656;2023-01-28T09:55:54;0.40;99.90
41924;DHT22;27613;48.116;11.656;2023-01-28T09:58:20;0.60;99.90
41924;DHT22;27613;48.116;11.656;2023-01-28T10:06:58;1.30;99.90
41924;DHT22;27613;48.116;11.656;2023-01-28T10:09:49;1.30;99.90
41924;DHT22;27613;48.116;11.656;2023-01-28T10:12:49;1.30;99.90
41924;DHT22;27613;48.116;11.656;2023-01-28T10:15:45;1.40;99.90
41924;DHT22;27613;48.116;11.656;2023-01-28T10:18:12;1.70;99.90
41924;DHT22;27613;48.116;11.656;2023-01-28T10:20:48;1.80;99.90
41924;DHT22;27613;48.116;11.656;2023-01-28T10:26:04;2.50;99.90
41924;DHT22;27613;48.116;11.656;2023-01-28T10:28:34;2.40;99.90
41924;DHT22;27613;48.116;11.656;2023-01-28T10:31:01;2.60;99.90
41924;DHT22;27613;48.116;11.656;2023-01-28T10:35:53;2.60;99.90
41924;DHT22;27613;48.116;11.656;2023-01-28T10:38:21;2.60;99.90
41924;DHT22;27613;48.116;11.656;2023-01-28T10:40:48;2.60;99.90
41924;DHT22;27613;48.116;11.656;2023-01-28T10:43:17;2.50;99.90
41924;DHT22;27613;48.116;11.656;2023-01-28T10:48:22;3.20;98.10
41924;DHT22;27613;48.116;11.656;2023-01-28T10:50:54;4.00;96.30
41924;DHT22;27613;48.116;11.656;2023-01-28T10:53:36;4.60;93.60
41924;DHT22;27613;48.116;11.656;2023-01-28T10:56:09;4.80;93.00
41924;DHT22;27613;48.116;11.656;2023-01-28T10:59:04;4.80;92.90
41924;DHT22;27613;48.116;11.656;2023-01-28T11:01:44;4.80;92.40
41924;DHT22;27613;48.116;11.656;2023-01-28T11:04:35;4.00;93.40
41924;DHT22;27613;48.116;11.656;2023-01-28T11:07:05;3.40;94.40
41924;DHT22;27613;48.116;11.656;2023-01-28T11:09:36;2.90;96.30
41924;DHT22;27613;48.116;11.656;2023-01-28T11:12:16;3.00;96.30
41924;DHT22;27613;48.116;11.656;2023-01-28T11:14:50;2.80;97.10
41924;DHT22;27613;48.116;11.656;2023-01-28T11:17:18;2.80;96.60
41924;DHT22;27613;48.116;11.656;2023-01-28T11:19:44;2.90;96.10
41924;DHT22;27613;48.116;11.656;2023-01-28T11:22:23;2.60;96.70
41924;DHT22;27613;48.116;11.656;2023-01-28T11:24:51;2.80;97.00
41924;DHT22;27613;48.116;11.656;2023-01-28T11:27:23;2.60;97.20
41924;DHT22;27613;48.116;11.656;2023-01-28T11:29:52;2.50;96.80
41924;DHT22;27613;48.116;11.656;2023-01-28T11:32:19;2.40;97.70
41924;DHT22;27613;48.116;11.656;2023-01-28T11:34:51;2.50;98.80
41924;DHT22;27613;48.116;11.656;2023-01-28T11:37:20;2.50;98.20
41924;DHT22;27613;48.116;11.656;2023-01-28T11:39:47;2.40;99.10
41924;DHT22;27613;48.116;11.656;2023-01-28T11:42:21;2.20;99.30
41924;DHT22;27613;48.116;11.656;2023-01-28T11:44:48;2.50;98.70
41924;DHT22;27613;48.116;11.656;2023-01-28T11:49:55;2.00;99.20
41924;DHT22;27613;48.116;11.656;2023-01-28T11:55:21;2.00;98.70
41924;DHT22;27613;48.116;11.656;2023-01-28T12:00:31;2.10;99.40
41924;DHT22;27613;48.116;11.656;2023-01-28T12:05:50;2.40;98.20
41924;DHT22;27613;48.116;11.656;2023-01-28T12:08:32;2.50;98.30
41924;DHT22;27613;48.116;11.656;2023-01-28T12:16:30;2.20;98.00
41924;DHT22;27613;48.116;11.656;2023-01-28T12:19:26;2.50;97.80
41924;DHT22;27613;48.116;11.656;2023-01-28T12:24:39;2.70;96.10
41924;DHT22;27613;48.116;11.656;2023-01-28T12:27:17;2.80;96.90
41924;DHT22;27613;48.116;11.656;2023-01-28T12:38:07;3.20;96.00
41924;DHT22;27613;48.116;11.656;2023-01-28T12:40:54;3.10;96.40
41924;DHT22;27613;48.116;11.656;2023-01-28T12:43:32;3.20;95.70
41924;DHT22;27613;48.116;11.656;2023-01-28T12:46:11;3.30;95.20
41924;DHT22;27613;48.116;11.656;2023-01-28T12:48:46;3.20;94.50
41924;DHT22;27613;48.116;11.656;2023-01-28T12:56:55;3.10;95.00
41924;DHT22;27613;48.116;11.656;2023-01-28T12:59:47;3.10;95.40
41924;DHT22;27613;48.116;11.656;2023-01-28T13:02:16;3.40;94.80
41924;DHT22;27613;48.116;11.656;2023-01-28T13:07:24;3.80;93.70
41924;DHT22;27613;48.116;11.656;2023-01-28T13:10:03;3.20;95.00
41924;DHT22;27613;48.116;11.656;2023-01-28T13:12:31;3.10;95.10
41924;DHT22;27613;48.116;11.656;2023-01-28T13:14:58;2.90;95.10
41924;DHT22;27613;48.116;11.656;2023-01-28T13:17:29;3.20;95.30
41924;DHT22;27613;48.116;11.656;2023-01-28T13:19:55;2.80;95.30
41924;DHT22;27613;48.116;11.656;2023-01-28T13:22:28;2.60;95.80
41924;DHT22;27613;48.116;11.656;2023-01-28T13:24:54;2.50;96.40
41924;DHT22;27613;48.116;11.656;2023-01-28T13:27:26;2.30;96.20
41924;DHT22;27613;48.116;11.656;2023-01-28T13:30:17;2.20;96.20
41924;DHT22;27613;48.116;11.656;2023-01-28T13:32:55;2.00;97.00
41924;DHT22;27613;48.116;11.656;2023-01-28T13:35:33;1.80;99.60
41924;DHT22;27613;48.116;11.656;2023-01-28T13:38:07;1.80;99.30
41924;DHT22;27613;48.116;11.656;2023-01-28T13:40:34;1.40;99.90
41924;DHT22;27613;48.116;11.656;2023-01-28T13:43:05;1.20;99.90
41924;DHT22;27613;48.116;11.656;2023-01-28T13:45:57;1.20;99.90
41924;DHT22;27613;48.116;11.656;2023-01-28T13:48:30;1.30;99.90
41924;DHT22;27613;48.116;11.656;2023-01-28T13:50:57;1.20;99.90
41924;DHT22;27613;48.116;11.656;2023-01-28T13:53:39;1.20;99.90
41924;DHT22;27613;48.116;11.656;2023-01-28T13:56:20;1.30;99.90
41924;DHT22;27613;48.116;11.656;2023-01-28T13:59:17;1.30;99.90
41924;DHT22;27613;48.116;11.656;2023-01-28T14:05:03;0.80;99.90
41924;DHT22;27613;48.116;11.656;2023-01-28T14:10:32;0.90;99.90
41924;DHT22;27613;48.116;11.656;2023-01-28T14:13:32;0.90;99.90
41924;DHT22;27613;48.116;11.656;2023-01-28T14:16:10;0.90;99.90
41924;DHT22;27613;48.116;11.656;2023-01-28T14:18:41;0.90;99.90
41924;DHT22;27613;48.116;11.656;2023-01-28T14:21:12;0.90;99.90
41924;DHT22;27613;48.116;11.656;2023-01-28T14:23:45;1.10;99.90
41924;DHT22;27613;48.116;11.656;2023-01-28T14:26:24;0.90;99.90
41924;DHT22;27613;48.116;11.656;2023-01-28T14:31:39;1.10;99.90
41924;DHT22;27613;48.116;11.656;2023-01-28T14:36:59;1.00;99.90
41924;DHT22;27613;48.116;11.656;2023-01-28T14:39:31;1.10;99.90
41924;DHT22;27613;48.116;11.656;2023-01-28T14:42:01;1.10;99.90
41924;DHT22;27613;48.116;11.656;2023-01-28T14:44:31;1.20;99.90
41924;DHT22;27613;48.116;11.656;2023-01-28T14:55:41;1.00;99.90
41924;DHT22;27613;48.116;11.656;2023-01-28T14:58:18;0.90;99.90
41924;DHT22;27613;48.116;11.656;2023-01-28T15:00:55;0.90;99.90
41924;DHT22;27613;48.116;11.656;2023-01-28T15:03:21;0.80;99.90
41924;DHT22;27613;48.116;11.656;2023-01-28T15:05:46;0.80;99.90
41924;DHT22;27613;48.116;11.656;2023-01-28T15:08:20;0.80;99.90
41924;DHT22;27613;48.116;11.656;2023-01-28T15:10:46;0.80;99.90
41924;DHT22;27613;48.116;11.656;2023-01-28T15:13:29;0.80;99.90
41924;DHT22;27613;48.116;11.656;2023-01-28T15:15:56;0.80;99.90
41924;DHT22;27613;48.116;11.656;2023-01-28T15:18:30;0.80;99.90
41924;DHT22;27613;48.116;11.656;2023-01-28T15:20:57;0.70;99.90
41924;DHT22;27613;48.116;11.656;2023-01-28T15:23:30;0.70;99.90
41924;DHT22;27613;48.116;11.656;2023-01-28T15:25:57;0.60;99.90
41924;DHT22;27613;48.116;11.656;2023-01-28T15:28:29;0.60;99.90
41924;DHT22;27613;48.116;11.656;2023-01-28T15:30:55;0.60;99.90
41924;DHT22;27613;48.116;11.656;2023-01-28T15:33:22;0.60;99.90
41924;DHT22;27613;48.116;11.656;2023-01-28T15:35:49;0.60;99.90
41924;DHT22;27613;48.116;11.656;2023-01-28T15:38:15;0.70;99.90
41924;DHT22;27613;48.116;11.656;2023-01-28T15:40:50;0.70;99.90
41924;DHT22;27613;48.116;11.656;2023-01-28T15:43:22;0.70;99.90
41924;DHT22;27613;48.116;11.656;2023-01-28T15:45:51;0.70;99.90
41924;DHT22;27613;48.116;11.656;2023-01-28T15:48:20;0.50;99.90
41924;DHT22;27613;48.116;11.656;2023-01-28T15:50:46;0.60;99.90
41924;DHT22;27613;48.116;11.656;2023-01-28T15:53:13;0.50;99.90
41924;DHT22;27613;48.116;11.656;2023-01-28T15:55:45;0.50;99.90
41924;DHT22;27613;48.116;11.656;2023-01-28T16:00:36;0.50;99.90
41924;DHT22;27613;48.116;11.656;2023-01-28T16:03:07;0.40;99.90
41924;DHT22;27613;48.116;11.656;2023-01-28T16:05:38;0.40;99.90
41924;DHT22;27613;48.116;11.656;2023-01-28T16:08:10;0.40;99.90
41924;DHT22;27613;48.116;11.656;2023-01-28T16:10:37;0.20;99.90
41924;DHT22;27613;48.116;11.656;2023-01-28T16:15:34;0.20;99.90
41924;DHT22;27613;48.116;11.656;2023-01-28T16:18:02;0.20;99.90
41924;DHT22;27613;48.116;11.656;2023-01-28T16:20:29;0.20;99.90
41924;DHT22;27613;48.116;11.656;2023-01-28T16:22:58;0.30;99.90
41924;DHT22;27613;48.116;11.656;2023-01-28T16:25:28;0.30;99.90
41924;DHT22;27613;48.116;11.656;2023-01-28T16:27:56;0.30;99.90
41924;DHT22;27613;48.116;11.656;2023-01-28T16:30:21;0.20;99.90
41924;DHT22;27613;48.116;11.656;2023-01-28T16:32:47;0.20;99.90
41924;DHT22;27613;48.116;11.656;2023-01-28T16:35:25;0.20;99.90
41924;DHT22;27613;48.116;11.656;2023-01-28T16:37:51;0.20;99.90
41924;DHT22;27613;48.116;11.656;2023-01-28T16:40:19;0.20;99.90
41924;DHT22;27613;48.116;11.656;2023-01-28T16:42:45;0.20;99.90
41924;DHT22;27613;48.116;11.656;2023-01-28T16:45:17;0.10;99.90
41924;DHT22;27613;48.116;11.656;2023-01-28T16:47:43;0.10;99.90
41924;DHT22;27613;48.116;11.656;2023-01-28T16:50:11;0.10;99.90
41924;DHT22;27613;48.116;11.656;2023-01-28T16:52:36;0.10;99.90
41924;DHT22;27613;48.116;11.656;2023-01-28T16:55:02;0.00;99.90
41924;DHT22;27613;48.116;11.656;2023-01-28T16:57:29;0.10;99.90
41924;DHT22;27613;48.116;11.656;2023-01-28T16:59:57;0.00;99.90
41924;DHT22;27613;48.116;11.656;2023-01-28T17:02:22;0.00;99.90
41924;DHT22;27613;48.116;11.656;2023-01-28T17:04:48;0.00;99.90
41924;DHT22;27613;48.116;11.656;2023-01-28T17:07:14;0.00;99.90
41924;DHT22;27613;48.116;11.656;2023-01-28T17:09:39;0.00;99.90
41924;DHT22;27613;48.116;11.656;2023-01-28T17:12:05;-0.10;99.90
41924;DHT22;27613;48.116;11.656;2023-01-28T17:14:31;-0.10;99.90
41924;DHT22;27613;48.116;11.656;2023-01-28T17:16:57;0.00;99.90
41924;DHT22;27613;48.116;11.656;2023-01-28T17:19:22;-0.10;99.90
41924;DHT22;27613;48.116;11.656;2023-01-28T17:21:48;0.00;99.90
41924;DHT22;27613;48.116;11.656;2023-01-28T17:24:13;0.00;99.90
41924;DHT22;27613;48.116;11.656;2023-01-28T17:26:39;0.00;99.90